DAL1421 KSFO-KLAX
Flight info
| Callsign | DAL1421 |
|---|---|
| Flight time | 0h 55m |
| Altitude | 33000 |
| Route | WESLA5 SUSEY EBAYE BURGL IRNMN2 |
| Aircraft | B738/M-SDE2E3FGHIRWXY/LB1 |
Departure
| Time | 2026-04-26 16:39 |
|---|---|
| Airport | San Francisco International Airport (KSFO) |
Arrival
| Time | 2026-04-26 17:35 |
|---|---|
| Airport | Los Angeles International Airport (KLAX) |
| Time | Latitude | Longitude | Altitude | Speed | Heading |
|---|---|---|---|---|---|
| 2026-04-26 16:24 | 37.61433 | -122.38274 | 31 ft | 0 kts | 27° |
| 2026-04-26 16:30 | 37.61427 | -122.38279 | 31 ft | 2 kts | 28° |
| 2026-04-26 16:30 | 37.61413 | -122.38287 | 31 ft | 2 kts | 28° |
| 2026-04-26 16:30 | 37.61401 | -122.38299 | 31 ft | 2 kts | 52° |
| 2026-04-26 16:30 | 37.61393 | -122.38315 | 31 ft | 2 kts | 75° |
| 2026-04-26 16:31 | 37.61392 | -122.38334 | 31 ft | 2 kts | 99° |
| 2026-04-26 16:31 | 37.61393 | -122.38341 | 31 ft | 0 kts | 109° |
| 2026-04-26 16:31 | 37.61383 | -122.38315 | 31 ft | 6 kts | 118° |
| 2026-04-26 16:31 | 37.61364 | -122.38268 | 31 ft | 3 kts | 117° |
| 2026-04-26 16:32 | 37.61359 | -122.38257 | 31 ft | 0 kts | 117° |
| 2026-04-26 16:33 | 37.61358 | -122.38254 | 31 ft | 2 kts | 117° |
| 2026-04-26 16:34 | 37.61346 | -122.38199 | 31 ft | 10 kts | 82° |
| 2026-04-26 16:34 | 37.61399 | -122.38138 | 31 ft | 12 kts | 28° |
| 2026-04-26 16:34 | 37.61501 | -122.38070 | 31 ft | 20 kts | 27° |
| 2026-04-26 16:34 | 37.61637 | -122.37980 | 31 ft | 20 kts | 29° |
| 2026-04-26 16:35 | 37.61673 | -122.37832 | 28 ft | 19 kts | 94° |
| 2026-04-26 16:35 | 37.61654 | -122.37653 | 24 ft | 23 kts | 96° |
| 2026-04-26 16:35 | 37.61631 | -122.37423 | 16 ft | 27 kts | 97° |
| 2026-04-26 16:35 | 37.61588 | -122.37193 | 14 ft | 27 kts | 118° |
| 2026-04-26 16:36 | 37.61498 | -122.36981 | 11 ft | 26 kts | 120° |
| 2026-04-26 16:36 | 37.61383 | -122.36806 | 11 ft | 25 kts | 127° |
| 2026-04-26 16:36 | 37.61297 | -122.36618 | 11 ft | 24 kts | 118° |
| 2026-04-26 16:36 | 37.61218 | -122.36432 | 9 ft | 24 kts | 118° |
| 2026-04-26 16:37 | 37.61141 | -122.36248 | 8 ft | 23 kts | 118° |
| 2026-04-26 16:37 | 37.61076 | -122.36093 | 8 ft | 16 kts | 118° |
| 2026-04-26 16:37 | 37.61055 | -122.35966 | 8 ft | 14 kts | 71° |
| 2026-04-26 16:37 | 37.61123 | -122.35885 | 8 ft | 12 kts | 28° |
| 2026-04-26 16:38 | 37.61186 | -122.35880 | 8 ft | 8 kts | 318° |
| 2026-04-26 16:38 | 37.61209 | -122.35922 | 8 ft | 0 kts | 298° |
| 2026-04-26 16:38 | 37.61270 | -122.36063 | 8 ft | 54 kts | 298° |
| 2026-04-26 16:38 | 37.61563 | -122.36768 | 12 ft | 126 kts | 298° |
| 2026-04-26 16:39 | 37.62057 | -122.37945 | 301 ft | 155 kts | 297° |
| 2026-04-26 16:39 | 37.62539 | -122.39098 | 1147 ft | 149 kts | 298° |
| 2026-04-26 16:39 | 37.63042 | -122.40230 | 1826 ft | 158 kts | 298° |
| 2026-04-26 16:39 | 37.63601 | -122.41501 | 2471 ft | 171 kts | 298° |
| 2026-04-26 16:40 | 37.64191 | -122.42851 | 3110 ft | 184 kts | 298° |
| 2026-04-26 16:40 | 37.64830 | -122.44317 | 3727 ft | 200 kts | 298° |
| 2026-04-26 16:40 | 37.65525 | -122.45915 | 4364 ft | 217 kts | 298° |
| 2026-04-26 16:40 | 37.66278 | -122.47644 | 5013 ft | 234 kts | 298° |
| 2026-04-26 16:41 | 37.67004 | -122.49539 | 5708 ft | 248 kts | 285° |
| 2026-04-26 16:41 | 37.67001 | -122.51755 | 6396 ft | 262 kts | 256° |
| 2026-04-26 16:41 | 37.66338 | -122.53889 | 7265 ft | 269 kts | 245° |
| 2026-04-26 16:41 | 37.65194 | -122.55769 | 8108 ft | 278 kts | 220° |
| 2026-04-26 16:42 | 37.63390 | -122.56724 | 8988 ft | 287 kts | 192° |
| 2026-04-26 16:42 | 37.61375 | -122.56764 | 9784 ft | 295 kts | 174° |
| 2026-04-26 16:42 | 37.59443 | -122.55926 | 10478 ft | 306 kts | 153° |
| 2026-04-26 16:42 | 37.57573 | -122.54460 | 10934 ft | 324 kts | 148° |
| 2026-04-26 16:43 | 37.55629 | -122.52831 | 11360 ft | 340 kts | 148° |
| 2026-04-26 16:43 | 37.53616 | -122.51186 | 11778 ft | 355 kts | 149° |
| 2026-04-26 16:43 | 37.51473 | -122.49470 | 12149 ft | 371 kts | 149° |
| 2026-04-26 16:43 | 37.49260 | -122.47613 | 12499 ft | 388 kts | 143° |
| 2026-04-26 16:44 | 37.47273 | -122.45282 | 13148 ft | 393 kts | 135° |
| 2026-04-26 16:44 | 37.45390 | -122.42754 | 13780 ft | 398 kts | 133° |
| 2026-04-26 16:44 | 37.43515 | -122.40161 | 14445 ft | 402 kts | 133° |
| 2026-04-26 16:44 | 37.41612 | -122.37531 | 15092 ft | 405 kts | 133° |
| 2026-04-26 16:45 | 37.39707 | -122.34914 | 15691 ft | 410 kts | 134° |
| 2026-04-26 16:45 | 37.37762 | -122.32258 | 16296 ft | 413 kts | 134° |
| 2026-04-26 16:45 | 37.35813 | -122.29606 | 16876 ft | 417 kts | 134° |
| 2026-04-26 16:45 | 37.33833 | -122.26917 | 17443 ft | 420 kts | 134° |
| 2026-04-26 16:46 | 37.31851 | -122.24230 | 17988 ft | 424 kts | 134° |
| 2026-04-26 16:46 | 37.29836 | -122.21503 | 18497 ft | 428 kts | 134° |
| 2026-04-26 16:46 | 37.27788 | -122.18734 | 19029 ft | 431 kts | 134° |
| 2026-04-26 16:46 | 37.25737 | -122.15964 | 19536 ft | 435 kts | 134° |
| 2026-04-26 16:47 | 37.23679 | -122.13189 | 20030 ft | 438 kts | 134° |
| 2026-04-26 16:47 | 37.21589 | -122.10374 | 20494 ft | 442 kts | 134° |
| 2026-04-26 16:47 | 37.19578 | -122.07666 | 20955 ft | 445 kts | 134° |
| 2026-04-26 16:47 | 37.17758 | -122.05218 | 21349 ft | 448 kts | 134° |
| 2026-04-26 16:48 | 37.15635 | -122.02363 | 21807 ft | 450 kts | 134° |
| 2026-04-26 16:48 | 37.13469 | -121.99451 | 22244 ft | 454 kts | 134° |
| 2026-04-26 16:48 | 37.11327 | -121.96573 | 22685 ft | 456 kts | 134° |
| 2026-04-26 16:48 | 37.09148 | -121.93649 | 23104 ft | 459 kts | 134° |
| 2026-04-26 16:49 | 37.06944 | -121.90695 | 23502 ft | 463 kts | 134° |
| 2026-04-26 16:49 | 37.04761 | -121.87770 | 23925 ft | 465 kts | 134° |
| 2026-04-26 16:49 | 37.02528 | -121.84782 | 24375 ft | 467 kts | 134° |
| 2026-04-26 16:49 | 37.00314 | -121.81821 | 24766 ft | 470 kts | 134° |
| 2026-04-26 16:50 | 36.98057 | -121.78805 | 25154 ft | 473 kts | 134° |
| 2026-04-26 16:50 | 36.95797 | -121.75787 | 25578 ft | 474 kts | 134° |
| 2026-04-26 16:50 | 36.93524 | -121.72757 | 25954 ft | 477 kts | 134° |
| 2026-04-26 16:50 | 36.91270 | -121.69754 | 26370 ft | 479 kts | 134° |
| 2026-04-26 16:51 | 36.88965 | -121.66685 | 26717 ft | 482 kts | 134° |
| 2026-04-26 16:51 | 36.86684 | -121.63652 | 27117 ft | 483 kts | 134° |
| 2026-04-26 16:51 | 36.84368 | -121.60577 | 27461 ft | 486 kts | 134° |
| 2026-04-26 16:51 | 36.82044 | -121.57493 | 27850 ft | 487 kts | 134° |
| 2026-04-26 16:52 | 36.79733 | -121.54427 | 28183 ft | 490 kts | 134° |
| 2026-04-26 16:52 | 36.78156 | -121.52338 | 28524 ft | 489 kts | 134° |
| 2026-04-26 16:52 | 36.75089 | -121.48276 | 29242 ft | 485 kts | 134° |
| 2026-04-26 16:52 | 36.72778 | -121.45219 | 29737 ft | 484 kts | 134° |
| 2026-04-26 16:53 | 36.70461 | -121.42155 | 30229 ft | 482 kts | 134° |
| 2026-04-26 16:53 | 36.68167 | -121.39128 | 30671 ft | 481 kts | 134° |
| 2026-04-26 16:53 | 36.65844 | -121.36064 | 31056 ft | 480 kts | 134° |
| 2026-04-26 16:53 | 36.63546 | -121.33037 | 31415 ft | 480 kts | 135° |
| 2026-04-26 16:54 | 36.61254 | -121.30021 | 31784 ft | 479 kts | 135° |
| 2026-04-26 16:54 | 36.58960 | -121.27005 | 32069 ft | 479 kts | 135° |
| 2026-04-26 16:54 | 36.56678 | -121.24008 | 32399 ft | 478 kts | 135° |
| 2026-04-26 16:54 | 36.54391 | -121.21008 | 32719 ft | 478 kts | 136° |
| 2026-04-26 16:55 | 36.52087 | -121.17986 | 32929 ft | 480 kts | 136° |
| 2026-04-26 16:55 | 36.49781 | -121.14968 | 32942 ft | 487 kts | 135° |
| 2026-04-26 16:55 | 36.45013 | -121.08739 | 32942 ft | 500 kts | 135° |
| 2026-04-26 16:56 | 36.40189 | -121.02251 | 32945 ft | 511 kts | 133° |
| 2026-04-26 16:56 | 36.37851 | -120.98882 | 32949 ft | 514 kts | 132° |
| 2026-04-26 16:57 | 36.33195 | -120.92084 | 32949 ft | 516 kts | 132° |
| 2026-04-26 16:57 | 36.26253 | -120.82042 | 32943 ft | 499 kts | 132° |
| 2026-04-26 16:58 | 36.22493 | -120.76650 | 32945 ft | 497 kts | 133° |
| 2026-04-26 16:59 | 36.14914 | -120.65839 | 32946 ft | 498 kts | 133° |
| 2026-04-26 17:00 | 36.05795 | -120.52881 | 32940 ft | 498 kts | 133° |
| 2026-04-26 17:00 | 35.98955 | -120.43197 | 32932 ft | 498 kts | 133° |
| 2026-04-26 17:01 | 35.94403 | -120.36765 | 32947 ft | 498 kts | 133° |
| 2026-04-26 17:01 | 35.89804 | -120.30333 | 32949 ft | 497 kts | 135° |
| 2026-04-26 17:02 | 35.84749 | -120.24603 | 32948 ft | 492 kts | 147° |
| 2026-04-26 17:02 | 35.79004 | -120.20010 | 32961 ft | 491 kts | 152° |
| 2026-04-26 17:03 | 35.73148 | -120.15663 | 32952 ft | 490 kts | 152° |
| 2026-04-26 17:03 | 35.67284 | -120.11311 | 32954 ft | 491 kts | 152° |
| 2026-04-26 17:04 | 35.61413 | -120.06914 | 32954 ft | 492 kts | 152° |
| 2026-04-26 17:04 | 35.55517 | -120.02476 | 32956 ft | 491 kts | 152° |
| 2026-04-26 17:05 | 35.49679 | -119.98083 | 32965 ft | 491 kts | 152° |
| 2026-04-26 17:05 | 35.43853 | -119.93710 | 32978 ft | 490 kts | 152° |
| 2026-04-26 17:06 | 35.38008 | -119.89324 | 32970 ft | 490 kts | 152° |
| 2026-04-26 17:06 | 35.32183 | -119.84963 | 32964 ft | 490 kts | 152° |
| 2026-04-26 17:07 | 35.26474 | -119.80387 | 32962 ft | 492 kts | 147° |
| 2026-04-26 17:07 | 35.20996 | -119.75276 | 32954 ft | 494 kts | 146° |
| 2026-04-26 17:08 | 35.15526 | -119.70089 | 32955 ft | 493 kts | 146° |
| 2026-04-26 17:08 | 35.10053 | -119.64942 | 32964 ft | 493 kts | 146° |
| 2026-04-26 17:09 | 35.05573 | -119.60751 | 32965 ft | 476 kts | 146° |
| 2026-04-26 17:09 | 35.02100 | -119.57512 | 32615 ft | 465 kts | 147° |
| 2026-04-26 17:09 | 34.99530 | -119.55126 | 31947 ft | 467 kts | 146° |
| 2026-04-26 17:10 | 34.97257 | -119.53021 | 31227 ft | 471 kts | 146° |
| 2026-04-26 17:10 | 34.94611 | -119.50575 | 30298 ft | 477 kts | 146° |
| 2026-04-26 17:10 | 34.91972 | -119.48135 | 29310 ft | 481 kts | 145° |
| 2026-04-26 17:10 | 34.89333 | -119.45715 | 28990 ft | 471 kts | 146° |
| 2026-04-26 17:11 | 34.84049 | -119.40977 | 28584 ft | 482 kts | 147° |
| 2026-04-26 17:11 | 34.81292 | -119.38529 | 27685 ft | 494 kts | 146° |
| 2026-04-26 17:11 | 34.78493 | -119.36037 | 26841 ft | 494 kts | 146° |
| 2026-04-26 17:12 | 34.73054 | -119.31191 | 26006 ft | 472 kts | 147° |
| 2026-04-26 17:12 | 34.70370 | -119.28831 | 25345 ft | 468 kts | 147° |
| 2026-04-26 17:13 | 34.65117 | -119.24257 | 24051 ft | 459 kts | 147° |
| 2026-04-26 17:13 | 34.62551 | -119.22031 | 23957 ft | 441 kts | 148° |
| 2026-04-26 17:13 | 34.57654 | -119.17815 | 23153 ft | 427 kts | 148° |
| 2026-04-26 17:14 | 34.55239 | -119.15733 | 22539 ft | 426 kts | 147° |
| 2026-04-26 17:14 | 34.50484 | -119.11539 | 21294 ft | 423 kts | 146° |
| 2026-04-26 17:14 | 34.48109 | -119.09434 | 20654 ft | 422 kts | 146° |
| 2026-04-26 17:15 | 34.43357 | -119.05228 | 19370 ft | 419 kts | 146° |
| 2026-04-26 17:15 | 34.40996 | -119.03168 | 18730 ft | 417 kts | 147° |
| 2026-04-26 17:15 | 34.38625 | -119.01113 | 18096 ft | 414 kts | 146° |
| 2026-04-26 17:16 | 34.36293 | -118.99094 | 17485 ft | 411 kts | 146° |
| 2026-04-26 17:16 | 34.33968 | -118.97079 | 17048 ft | 404 kts | 146° |
| 2026-04-26 17:16 | 34.31723 | -118.95077 | 16604 ft | 398 kts | 145° |
| 2026-04-26 17:16 | 34.29511 | -118.93062 | 15996 ft | 397 kts | 145° |
| 2026-04-26 17:17 | 34.27295 | -118.91037 | 15383 ft | 396 kts | 144° |
| 2026-04-26 17:17 | 34.25073 | -118.89009 | 14762 ft | 396 kts | 144° |
| 2026-04-26 17:17 | 34.22870 | -118.86986 | 14138 ft | 395 kts | 144° |
| 2026-04-26 17:17 | 34.20695 | -118.84982 | 13540 ft | 393 kts | 144° |
| 2026-04-26 17:18 | 34.18539 | -118.82996 | 13162 ft | 384 kts | 144° |
| 2026-04-26 17:18 | 34.16438 | -118.81058 | 12940 ft | 372 kts | 144° |
| 2026-04-26 17:18 | 34.14484 | -118.79086 | 12474 ft | 370 kts | 140° |
| 2026-04-26 17:18 | 34.12590 | -118.77000 | 11961 ft | 368 kts | 139° |
| 2026-04-26 17:19 | 34.08858 | -118.72844 | 10981 ft | 356 kts | 139° |
| 2026-04-26 17:19 | 34.07052 | -118.70860 | 10517 ft | 347 kts | 140° |
| 2026-04-26 17:19 | 34.05280 | -118.68922 | 10061 ft | 338 kts | 139° |
| 2026-04-26 17:20 | 34.03737 | -118.66841 | 9772 ft | 327 kts | 125° |
| 2026-04-26 17:20 | 34.03033 | -118.65300 | 9719 ft | 315 kts | 112° |
| 2026-04-26 17:20 | 34.02438 | -118.61924 | 9155 ft | 308 kts | 95° |
| 2026-04-26 17:20 | 34.02242 | -118.59421 | 8690 ft | 306 kts | 94° |
| 2026-04-26 17:21 | 34.02034 | -118.56885 | 8297 ft | 300 kts | 95° |
| 2026-04-26 17:21 | 34.01815 | -118.54410 | 7940 ft | 294 kts | 95° |
| 2026-04-26 17:21 | 34.01593 | -118.51977 | 7583 ft | 288 kts | 95° |
| 2026-04-26 17:21 | 34.01374 | -118.49611 | 7446 ft | 274 kts | 96° |
| 2026-04-26 17:22 | 34.01167 | -118.47409 | 7371 ft | 259 kts | 96° |
| 2026-04-26 17:22 | 34.01102 | -118.45291 | 7257 ft | 248 kts | 82° |
| 2026-04-26 17:22 | 34.01412 | -118.43230 | 6957 ft | 247 kts | 75° |
| 2026-04-26 17:22 | 34.01782 | -118.41201 | 6668 ft | 247 kts | 76° |
| 2026-04-26 17:23 | 34.02138 | -118.39178 | 6485 ft | 242 kts | 76° |
| 2026-04-26 17:23 | 34.02474 | -118.37230 | 6343 ft | 236 kts | 76° |
| 2026-04-26 17:23 | 34.02780 | -118.35303 | 6087 ft | 235 kts | 80° |
| 2026-04-26 17:23 | 34.02987 | -118.33337 | 5827 ft | 235 kts | 82° |
| 2026-04-26 17:24 | 34.03175 | -118.31390 | 5591 ft | 233 kts | 82° |
| 2026-04-26 17:24 | 34.03365 | -118.29480 | 5400 ft | 227 kts | 82° |
| 2026-04-26 17:24 | 34.03566 | -118.27623 | 5354 ft | 211 kts | 81° |
| 2026-04-26 17:24 | 34.03756 | -118.25944 | 5276 ft | 197 kts | 81° |
| 2026-04-26 17:25 | 34.03940 | -118.24323 | 5054 ft | 192 kts | 81° |
| 2026-04-26 17:25 | 34.04120 | -118.22732 | 4788 ft | 192 kts | 81° |
| 2026-04-26 17:25 | 34.04301 | -118.21123 | 4532 ft | 191 kts | 81° |
| 2026-04-26 17:25 | 34.04480 | -118.19537 | 4283 ft | 190 kts | 81° |
| 2026-04-26 17:26 | 34.04659 | -118.17945 | 4020 ft | 190 kts | 81° |
| 2026-04-26 17:26 | 34.04644 | -118.16379 | 3792 ft | 187 kts | 106° |
| 2026-04-26 17:26 | 34.04089 | -118.14999 | 3597 ft | 181 kts | 122° |
| 2026-04-26 17:26 | 34.03463 | -118.13686 | 3365 ft | 179 kts | 121° |
| 2026-04-26 17:27 | 34.02693 | -118.12535 | 3109 ft | 173 kts | 148° |
| 2026-04-26 17:27 | 34.01727 | -118.11720 | 2901 ft | 172 kts | 136° |
| 2026-04-26 17:27 | 34.00937 | -118.10617 | 2598 ft | 172 kts | 142° |
| 2026-04-26 17:27 | 33.99898 | -118.10043 | 2541 ft | 163 kts | 179° |
| 2026-04-26 17:28 | 33.98798 | -118.10303 | 2563 ft | 162 kts | 213° |
| 2026-04-26 17:28 | 33.98070 | -118.11245 | 2555 ft | 146 kts | 250° |
| 2026-04-26 17:28 | 33.97960 | -118.12431 | 2567 ft | 142 kts | 271° |
| 2026-04-26 17:28 | 33.97885 | -118.13621 | 2567 ft | 143 kts | 264° |
| 2026-04-26 17:29 | 33.97780 | -118.14811 | 2562 ft | 142 kts | 264° |
| 2026-04-26 17:29 | 33.97705 | -118.15597 | 2562 ft | 142 kts | 263° |
| 2026-04-26 17:29 | 33.97549 | -118.17185 | 2565 ft | 142 kts | 264° |
| 2026-04-26 17:29 | 33.97432 | -118.18362 | 2567 ft | 142 kts | 264° |
| 2026-04-26 17:30 | 33.97315 | -118.19541 | 2568 ft | 141 kts | 264° |
| 2026-04-26 17:30 | 33.97195 | -118.20729 | 2571 ft | 142 kts | 264° |
| 2026-04-26 17:30 | 33.97076 | -118.21904 | 2571 ft | 142 kts | 264° |
| 2026-04-26 17:30 | 33.96958 | -118.23081 | 2571 ft | 141 kts | 264° |
| 2026-04-26 17:31 | 33.96838 | -118.24269 | 2573 ft | 142 kts | 264° |
| 2026-04-26 17:31 | 33.96720 | -118.25432 | 2553 ft | 141 kts | 264° |
| 2026-04-26 17:31 | 33.96600 | -118.26626 | 2417 ft | 146 kts | 264° |
| 2026-04-26 17:31 | 33.96477 | -118.27833 | 2181 ft | 141 kts | 263° |
| 2026-04-26 17:32 | 33.96358 | -118.28999 | 1989 ft | 138 kts | 263° |
| 2026-04-26 17:32 | 33.96242 | -118.30143 | 1814 ft | 141 kts | 264° |
| 2026-04-26 17:32 | 33.96122 | -118.31319 | 1602 ft | 139 kts | 263° |
| 2026-04-26 17:32 | 33.96004 | -118.32475 | 1416 ft | 139 kts | 263° |
| 2026-04-26 17:33 | 33.95885 | -118.33634 | 1227 ft | 140 kts | 263° |
| 2026-04-26 17:33 | 33.95765 | -118.34814 | 1037 ft | 141 kts | 263° |
| 2026-04-26 17:33 | 33.95643 | -118.35991 | 845 ft | 143 kts | 263° |
| 2026-04-26 17:34 | 33.95412 | -118.38359 | 436 ft | 142 kts | 263° |
| 2026-04-26 17:34 | 33.95284 | -118.39547 | 254 ft | 143 kts | 263° |
| 2026-04-26 17:34 | 33.95158 | -118.40733 | 142 ft | 139 kts | 263° |
| 2026-04-26 17:34 | 33.95060 | -118.41714 | 126 ft | 84 kts | 263° |
| 2026-04-26 17:35 | 33.95017 | -118.42143 | 125 ft | 25 kts | 263° |
| 2026-04-26 17:35 | 33.94994 | -118.42351 | 124 ft | 24 kts | 261° |
| 2026-04-26 17:35 | 33.94944 | -118.42536 | 123 ft | 23 kts | 239° |
| 2026-04-26 17:35 | 33.94846 | -118.42687 | 120 ft | 22 kts | 222° |
| 2026-04-26 17:36 | 33.94715 | -118.42778 | 118 ft | 19 kts | 194° |
| 2026-04-26 17:36 | 33.94635 | -118.42712 | 117 ft | 16 kts | 87° |
| 2026-04-26 17:36 | 33.94646 | -118.42588 | 119 ft | 14 kts | 83° |
| 2026-04-26 17:36 | 33.94658 | -118.42477 | 119 ft | 12 kts | 82° |
| 2026-04-26 17:37 | 33.94672 | -118.42346 | 120 ft | 20 kts | 83° |
| 2026-04-26 17:37 | 33.94691 | -118.42165 | 122 ft | 21 kts | 83° |
| 2026-04-26 17:37 | 33.94708 | -118.41997 | 123 ft | 19 kts | 83° |
| 2026-04-26 17:38 | 33.94737 | -118.41698 | 126 ft | 19 kts | 83° |
| 2026-04-26 17:38 | 33.94758 | -118.41511 | 127 ft | 24 kts | 83° |
| 2026-04-26 17:38 | 33.94792 | -118.41316 | 129 ft | 22 kts | 83° |
| 2026-04-26 17:38 | 33.94811 | -118.41134 | 130 ft | 21 kts | 83° |
| 2026-04-26 17:39 | 33.94829 | -118.40957 | 129 ft | 20 kts | 84° |
| 2026-04-26 17:39 | 33.94846 | -118.40788 | 128 ft | 20 kts | 83° |
| 2026-04-26 17:39 | 33.94862 | -118.40623 | 127 ft | 19 kts | 84° |
| 2026-04-26 17:39 | 33.94878 | -118.40458 | 125 ft | 19 kts | 82° |
| 2026-04-26 17:40 | 33.94881 | -118.40308 | 124 ft | 15 kts | 125° |
| 2026-04-26 17:40 | 33.94822 | -118.40278 | 125 ft | 12 kts | 161° |
| 2026-04-26 17:40 | 33.94729 | -118.40260 | 127 ft | 8 kts | 202° |
| 2026-04-26 17:40 | 33.94701 | -118.40315 | 127 ft | 6 kts | 261° |
| 2026-04-26 17:41 | 33.94699 | -118.40332 | 128 ft | 0 kts | 262° |